createdAt,value
2019-04-01T00:01:25.450Z,6.75
2019-04-01T00:06:32.694Z,6.92
2019-04-01T00:11:40.320Z,6.58
2019-04-01T00:16:47.530Z,6.28
2019-04-01T00:21:54.944Z,8.28
2019-04-01T00:27:02.429Z,7.25
2019-04-01T00:32:09.913Z,6.40
2019-04-01T00:37:17.131Z,7.00
2019-04-01T00:42:29.502Z,6.20
2019-04-01T00:47:36.590Z,5.92
2019-04-01T00:52:45.652Z,6.50
2019-04-01T00:57:52.981Z,6.03
2019-04-01T01:02:59.729Z,6.47
2019-04-01T01:08:07.305Z,6.67
2019-04-01T01:13:14.897Z,7.33
2019-04-01T01:18:20.691Z,7.12
2019-04-01T01:23:27.083Z,7.10
2019-04-01T01:28:32.986Z,7.17
2019-04-01T01:33:40.259Z,7.07
2019-04-01T01:38:47.883Z,6.72
2019-04-01T01:43:55.139Z,6.78
2019-04-01T01:49:02.519Z,6.60
2019-04-01T01:54:09.425Z,7.10
2019-04-01T01:59:16.727Z,7.33
2019-04-01T02:04:23.981Z,8.10
2019-04-01T02:09:31.195Z,7.70
2019-04-01T02:14:37.806Z,7.63
2019-04-01T02:19:44.979Z,8.17
2019-04-01T02:24:51.382Z,8.45
2019-04-01T02:29:57.342Z,8.73
2019-04-01T02:35:03.243Z,9.30
2019-04-01T02:40:09.180Z,9.47
2019-04-01T02:45:17.172Z,10.43
2019-04-01T02:50:23.461Z,11.00
2019-04-01T02:55:29.994Z,10.87
2019-04-01T03:00:37.794Z,10.50
2019-04-01T06:08:12.519Z,16.20
2019-04-01T06:14:26.606Z,18.37
2019-04-01T06:19:33.734Z,19.17
2019-04-01T06:24:39.748Z,17.63
2019-04-01T06:29:50.167Z,17.77
2019-04-01T06:34:59.526Z,18.40
2019-04-01T06:40:10.070Z,18.33
2019-04-01T06:45:17.478Z,17.33
2019-04-01T06:50:23.836Z,17.55
2019-04-01T06:55:30.157Z,18.57
2019-04-01T07:00:36.446Z,17.70
2019-04-01T07:05:42.819Z,18.80
2019-04-01T07:10:51.087Z,17.12
2019-04-01T07:15:58.762Z,17.57
2019-04-01T07:21:13.715Z,17.57
2019-04-01T07:26:20.867Z,18.27
2019-04-01T07:31:27.944Z,18.52
2019-04-01T07:36:56.104Z,19.12
2019-04-01T07:42:04.526Z,19.15
2019-04-01T07:47:13.473Z,18.03
2019-04-01T07:52:24.772Z,17.77
2019-04-01T07:57:32.823Z,19.80
2019-04-01T08:02:40.829Z,19.00
2019-04-01T08:07:47.679Z,19.07
2019-04-01T08:12:56.307Z,19.45
2019-04-01T08:18:03.587Z,19.55
2019-04-01T08:23:12.319Z,18.27
2019-04-01T08:28:37.261Z,18.87
2019-04-01T08:33:45.123Z,18.05
2019-04-01T08:38:55.297Z,18.27
2019-04-01T08:44:03.276Z,19.73
2019-04-01T08:49:09.317Z,17.73
2019-04-01T08:54:15.290Z,18.30
2019-04-01T08:59:21.892Z,19.30
2019-04-01T09:04:28.229Z,17.82
2019-04-01T09:09:36.074Z,18.50
2019-04-01T09:14:42.404Z,19.23
2019-04-01T09:19:48.129Z,17.55
2019-04-01T09:24:54.320Z,19.05
2019-04-01T09:30:01.579Z,18.65
2019-04-01T09:35:07.404Z,17.75
2019-04-01T09:40:13.742Z,18.27
2019-04-01T09:45:20.319Z,17.87
2019-04-01T09:50:26.736Z,18.32
2019-04-01T09:55:33.745Z,18.85
2019-04-01T10:00:41.411Z,17.87
2019-04-01T10:05:48.547Z,17.70
2019-04-01T10:10:56.291Z,17.23
2019-04-01T10:16:02.532Z,17.05
2019-04-01T10:21:11.042Z,16.70
2019-04-01T10:26:17.929Z,16.10
2019-04-01T10:31:25.730Z,18.27
2019-04-01T10:36:35.198Z,17.07
2019-04-01T10:41:41.998Z,16.25
2019-04-01T10:46:48.247Z,17.52
2019-04-01T10:51:54.822Z,17.15
2019-04-01T10:57:01.181Z,17.15
2019-04-01T11:02:08.687Z,17.75
2019-04-01T11:07:16.221Z,18.15
2019-04-01T11:12:22.785Z,18.07
2019-04-01T11:17:30.030Z,19.25
2019-04-01T11:22:36.981Z,17.48
2019-04-01T11:27:44.684Z,18.42
2019-04-01T11:32:51.732Z,17.45
2019-04-01T11:37:59.607Z,18.52
2019-04-01T11:43:35.453Z,21.48
2019-04-01T11:48:42.749Z,19.20
2019-04-01T11:53:50.003Z,18.57
2019-04-01T11:58:57.672Z,18.17
2019-04-01T12:04:05.458Z,18.57
2019-04-01T12:09:20.684Z,18.45
2019-04-01T12:14:28.264Z,17.82
2019-04-01T12:19:35.830Z,18.30
2019-04-01T12:24:43.439Z,17.25
2019-04-01T12:29:53.926Z,18.25
2019-04-01T12:35:01.774Z,17.35
2019-04-01T12:40:10.578Z,20.68
2019-04-01T12:45:19.128Z,19.40
2019-04-01T12:50:25.352Z,18.07
2019-04-01T12:55:31.372Z,18.52
2019-04-01T13:00:38.716Z,19.35
2019-04-01T13:05:47.124Z,15.35
2019-04-01T13:11:12.698Z,17.02
2019-04-01T13:16:20.549Z,18.65
2019-04-01T13:21:27.263Z,19.48
2019-04-01T13:26:44.146Z,17.40
2019-04-01T13:31:51.095Z,15.70
2019-04-01T13:36:58.684Z,17.57
2019-04-01T13:42:04.908Z,17.67
2019-04-01T13:47:12.381Z,17.80
2019-04-01T13:52:19.252Z,19.17
2019-04-01T13:57:26.603Z,18.62
2019-04-01T14:02:33.889Z,15.88
2019-04-01T14:07:41.101Z,18.30
2019-04-01T14:12:48.415Z,19.45
2019-04-01T14:17:55.237Z,19.50
2019-04-01T14:23:01.567Z,14.07
2019-04-01T14:28:09.296Z,19.20
2019-04-01T14:33:16.491Z,18.80
2019-04-01T14:38:24.030Z,18.25
2019-04-01T14:43:31.637Z,16.87
2019-04-01T14:48:38.773Z,19.15
2019-04-01T14:53:46.383Z,20.23
2019-04-01T14:58:53.021Z,18.80
2019-04-01T15:03:59.755Z,18.10
2019-04-01T15:09:09.047Z,16.50
2019-04-01T15:14:14.931Z,18.92
2019-04-01T15:19:22.153Z,19.75
2019-04-01T15:24:29.273Z,18.30
2019-04-01T15:29:35.507Z,18.42
2019-04-01T15:34:42.542Z,19.05
2019-04-01T15:39:49.988Z,19.95
2019-04-01T15:44:57.589Z,20.02
2019-04-01T15:50:04.180Z,18.57
2019-04-01T15:55:31.609Z,16.82
2019-04-01T16:00:40.747Z,16.25
2019-04-01T16:05:47.517Z,16.70
2019-04-01T16:10:54.549Z,15.78
2019-04-01T16:16:01.124Z,15.90
2019-04-01T16:21:08.049Z,15.98
2019-04-01T16:26:13.881Z,16.17
2019-04-01T16:31:21.021Z,16.87
2019-04-01T16:36:28.464Z,15.68
2019-04-01T16:41:36.347Z,16.48
2019-04-01T16:46:42.231Z,16.07
2019-04-01T16:51:49.681Z,16.80
2019-04-01T16:56:55.976Z,17.42
2019-04-01T17:02:17.000Z,16.00
2019-04-01T17:07:12.028Z,16.55
2019-04-01T17:12:19.835Z,16.55
2019-04-01T17:17:26.788Z,17.02
2019-04-01T17:22:32.816Z,16.50
2019-04-01T17:27:38.785Z,17.37
2019-04-01T17:32:45.445Z,16.55
2019-04-01T17:37:51.936Z,15.98
2019-04-01T17:42:57.847Z,16.27
2019-04-01T17:48:04.607Z,18.35
2019-04-01T17:53:11.801Z,17.65
2019-04-01T17:58:18.194Z,16.85
2019-04-01T18:03:24.299Z,17.62
2019-04-01T18:08:30.054Z,17.02
2019-04-01T18:13:36.186Z,16.87
2019-04-01T18:18:42.365Z,17.32
2019-04-01T18:23:48.698Z,17.30
2019-04-01T18:28:55.565Z,18.37
2019-04-01T18:34:02.564Z,18.00
2019-04-01T18:39:10.180Z,20.57
2019-04-01T18:44:18.557Z,17.85
2019-04-01T18:49:24.622Z,16.95
2019-04-01T18:54:32.277Z,17.42
2019-04-01T18:59:40.553Z,18.57
2019-04-01T19:04:48.565Z,19.00
2019-04-01T19:10:05.566Z,18.05
2019-04-01T19:15:03.958Z,18.23
2019-04-01T19:20:11.744Z,18.65
2019-04-01T19:25:19.058Z,17.80
2019-04-01T19:30:31.445Z,18.07
2019-04-01T19:35:37.720Z,18.82
2019-04-01T19:40:44.427Z,18.50
2019-04-01T19:45:52.472Z,19.10
2019-04-01T19:50:59.771Z,17.27
2019-04-01T19:56:07.522Z,16.85
2019-04-01T20:01:14.150Z,18.17
2019-04-01T20:06:20.343Z,16.70
2019-04-01T20:11:28.037Z,17.12
2019-04-01T20:16:34.941Z,18.12
2019-04-01T20:21:47.612Z,17.65
2019-04-01T20:26:54.462Z,16.55
2019-04-01T20:32:01.542Z,17.50
2019-04-01T20:37:07.870Z,16.65
2019-04-01T20:42:17.073Z,18.15
2019-04-01T20:47:24.175Z,16.85
2019-04-01T20:52:31.592Z,16.97
2019-04-01T20:57:39.083Z,17.42
2019-04-01T21:02:46.313Z,16.85
2019-04-01T21:07:53.192Z,18.17
2019-04-01T21:13:01.033Z,16.50
2019-04-01T21:18:08.450Z,17.48
2019-04-01T21:23:15.882Z,17.48
2019-04-01T21:28:23.904Z,17.87
2019-04-01T21:33:33.324Z,16.37
2019-04-01T21:38:39.941Z,17.32
2019-04-01T21:43:49.032Z,17.82
2019-04-01T21:48:58.091Z,17.85
2019-04-01T21:54:05.860Z,18.35
2019-04-01T21:59:13.300Z,17.90
2019-04-01T22:04:20.540Z,17.75
2019-04-01T22:09:27.100Z,16.80
2019-04-01T22:14:34.453Z,18.42
2019-04-01T22:19:42.019Z,17.73
2019-04-01T22:24:49.887Z,19.67
2019-04-01T22:29:59.126Z,18.12
2019-04-01T22:35:08.667Z,17.83
2019-04-01T22:40:15.106Z,18.37
2019-04-01T22:45:22.090Z,19.62
2019-04-01T22:50:28.092Z,18.80
2019-04-01T22:55:34.375Z,21.07
2019-04-01T23:00:40.959Z,19.73
2019-04-01T23:05:46.841Z,18.90
2019-04-01T23:10:52.690Z,22.25
2019-04-01T23:15:58.560Z,20.17
2019-04-01T23:21:04.851Z,20.25
2019-04-01T23:26:10.915Z,21.00
2019-04-01T23:31:18.173Z,20.53
2019-04-01T23:36:24.156Z,20.35
2019-04-01T23:41:30.229Z,22.02
2019-04-01T23:46:36.184Z,18.90
2019-04-01T23:51:42.548Z,17.67
2019-04-01T23:56:49.657Z,18.35
